sensor_id;sensor_type;location;lat;lon;timestamp;pressure;altitude;pressure_sealevel;temperature;humidity
37648;BME280;23490;53.656;10.076;2023-01-31T00:01:24;99760.84;;;-145.95;94.71
37648;BME280;23490;53.656;10.076;2023-01-31T00:03:54;99756.72;;;-145.95;94.80
37648;BME280;23490;53.656;10.076;2023-01-31T00:06:22;99769.13;;;-145.95;94.93
37648;BME280;23490;53.656;10.076;2023-01-31T00:08:49;99738.13;;;-145.95;95.32
37648;BME280;23490;53.656;10.076;2023-01-31T00:11:17;99764.97;;;-145.95;95.57
37648;BME280;23490;53.656;10.076;2023-01-31T00:13:43;99771.19;;;-145.95;95.59
37648;BME280;23490;53.656;10.076;2023-01-31T00:16:10;99731.94;;;-145.95;95.75
37648;BME280;23490;53.656;10.076;2023-01-31T00:18:36;99746.38;;;-145.95;96.10
37648;BME280;23490;53.656;10.076;2023-01-31T00:21:14;99736.06;;;-145.95;96.71
37648;BME280;23490;53.656;10.076;2023-01-31T00:23:40;99756.72;;;-145.95;96.93
37648;BME280;23490;53.656;10.076;2023-01-31T00:26:18;99748.44;;;-145.95;96.99
37648;BME280;23490;53.656;10.076;2023-01-31T00:28:44;99748.44;;;-145.95;97.45
37648;BME280;23490;53.656;10.076;2023-01-31T00:31:11;99810.41;;;-145.95;97.73
37648;BME280;23490;53.656;10.076;2023-01-31T00:33:39;99750.53;;;-145.95;97.92
37648;BME280;23490;53.656;10.076;2023-01-31T00:36:08;99748.44;;;-145.95;97.88
37648;BME280;23490;53.656;10.076;2023-01-31T00:38:34;99734.00;;;-145.95;97.62
37648;BME280;23490;53.656;10.076;2023-01-31T00:41:00;99731.94;;;-145.95;97.64
37648;BME280;23490;53.656;10.076;2023-01-31T00:43:26;99736.06;;;-145.95;96.80
37648;BME280;23490;53.656;10.076;2023-01-31T00:45:51;99764.97;;;-145.95;97.07
37648;BME280;23490;53.656;10.076;2023-01-31T00:48:16;99760.84;;;-145.95;97.92
37648;BME280;23490;53.656;10.076;2023-01-31T00:50:42;99748.44;;;-145.95;99.23
37648;BME280;23490;53.656;10.076;2023-01-31T00:53:08;99760.84;;;-145.95;99.74
37648;BME280;23490;53.656;10.076;2023-01-31T00:55:33;99744.31;;;-145.95;99.58
37648;BME280;23490;53.656;10.076;2023-01-31T00:57:59;99742.25;;;-145.95;100.00
37648;BME280;23490;53.656;10.076;2023-01-31T01:00:24;99727.81;;;-145.95;100.00
37648;BME280;23490;53.656;10.076;2023-01-31T01:02:49;99736.06;;;-145.95;100.00
37648;BME280;23490;53.656;10.076;2023-01-31T01:05:14;99773.25;;;-145.95;100.00
37648;BME280;23490;53.656;10.076;2023-01-31T01:07:40;99762.91;;;-145.95;100.00
37648;BME280;23490;53.656;10.076;2023-01-31T01:10:06;99769.13;;;-145.95;100.00
37648;BME280;23490;53.656;10.076;2023-01-31T01:12:32;99727.81;;;-145.95;100.00
37648;BME280;23490;53.656;10.076;2023-01-31T01:14:57;99779.44;;;-145.95;100.00
37648;BME280;23490;53.656;10.076;2023-01-31T01:17:23;99769.13;;;-145.95;100.00
37648;BME280;23490;53.656;10.076;2023-01-31T01:19:48;99752.59;;;-145.95;100.00
37648;BME280;23490;53.656;10.076;2023-01-31T01:22:13;99777.38;;;-145.95;100.00
37648;BME280;23490;53.656;10.076;2023-01-31T01:24:43;99764.97;;;-145.95;100.00
37648;BME280;23490;53.656;10.076;2023-01-31T01:27:09;99748.44;;;-145.95;100.00
37648;BME280;23490;53.656;10.076;2023-01-31T01:29:35;99818.69;;;-145.95;100.00
37648;BME280;23490;53.656;10.076;2023-01-31T01:32:00;99744.31;;;-145.95;100.00
37648;BME280;23490;53.656;10.076;2023-01-31T01:34:26;99787.69;;;-145.95;100.00
37648;BME280;23490;53.656;10.076;2023-01-31T01:36:51;99736.06;;;-145.95;100.00
37648;BME280;23490;53.656;10.076;2023-01-31T01:39:17;99752.59;;;-145.95;100.00
37648;BME280;23490;53.656;10.076;2023-01-31T01:41:42;99806.28;;;-145.95;100.00
37648;BME280;23490;53.656;10.076;2023-01-31T01:44:41;99769.13;;;-145.95;100.00
37648;BME280;23490;53.656;10.076;2023-01-31T01:47:14;99835.19;;;-145.95;100.00
37648;BME280;23490;53.656;10.076;2023-01-31T01:49:43;99789.75;;;-145.95;100.00
37648;BME280;23490;53.656;10.076;2023-01-31T01:52:11;99818.69;;;-145.95;100.00
37648;BME280;23490;53.656;10.076;2023-01-31T01:54:44;99785.63;;;-145.95;100.00
37648;BME280;23490;53.656;10.076;2023-01-31T01:57:12;99773.25;;;-145.95;100.00
37648;BME280;23490;53.656;10.076;2023-01-31T01:59:44;99798.03;;;-145.95;100.00
37648;BME280;23490;53.656;10.076;2023-01-31T02:02:11;99777.38;;;-145.95;100.00
37648;BME280;23490;53.656;10.076;2023-01-31T02:04:39;99762.91;;;-145.95;100.00
37648;BME280;23490;53.656;10.076;2023-01-31T02:07:06;99764.97;;;-145.95;100.00
37648;BME280;23490;53.656;10.076;2023-01-31T02:09:47;99764.97;;;-145.95;100.00
37648;BME280;23490;53.656;10.076;2023-01-31T02:12:15;99777.38;;;-145.95;100.00
37648;BME280;23490;53.656;10.076;2023-01-31T02:14:41;99738.13;;;-145.95;100.00
37648;BME280;23490;53.656;10.076;2023-01-31T02:17:15;99736.06;;;-145.95;100.00
37648;BME280;23490;53.656;10.076;2023-01-31T02:22:25;99781.50;;;-145.95;100.00
37648;BME280;23490;53.656;10.076;2023-01-31T02:30:59;99760.84;;;-145.95;100.00
37648;BME280;23490;53.656;10.076;2023-01-31T02:38:49;99756.72;;;-145.95;100.00
37648;BME280;23490;53.656;10.076;2023-01-31T02:41:35;99744.31;;;-145.95;100.00
37648;BME280;23490;53.656;10.076;2023-01-31T02:44:29;99746.38;;;-145.95;100.00
37648;BME280;23490;53.656;10.076;2023-01-31T02:47:32;99769.13;;;-145.95;100.00
37648;BME280;23490;53.656;10.076;2023-01-31T02:50:19;99727.81;;;-145.95;100.00
37648;BME280;23490;53.656;10.076;2023-01-31T02:52:57;99756.72;;;-145.95;100.00
37648;BME280;23490;53.656;10.076;2023-01-31T02:55:37;99789.75;;;-145.95;100.00
37648;BME280;23490;53.656;10.076;2023-01-31T02:58:26;99764.97;;;-145.95;100.00
37648;BME280;23490;53.656;10.076;2023-01-31T03:00:55;99744.31;;;-145.95;100.00
37648;BME280;23490;53.656;10.076;2023-01-31T03:03:24;99775.31;;;-145.95;100.00
37648;BME280;23490;53.656;10.076;2023-01-31T03:08:49;99777.38;;;-145.95;100.00
37648;BME280;23490;53.656;10.076;2023-01-31T03:11:18;99760.84;;;-145.95;100.00
37648;BME280;23490;53.656;10.076;2023-01-31T03:13:50;99816.63;;;-145.95;100.00
37648;BME280;23490;53.656;10.076;2023-01-31T03:16:32;99738.13;;;-145.95;100.00
37648;BME280;23490;53.656;10.076;2023-01-31T03:19:23;99783.56;;;-145.95;100.00
37648;BME280;23490;53.656;10.076;2023-01-31T03:21:55;99795.97;;;-145.95;100.00
37648;BME280;23490;53.656;10.076;2023-01-31T03:24:22;99777.38;;;-145.95;100.00
37648;BME280;23490;53.656;10.076;2023-01-31T03:26:51;99760.84;;;-145.95;100.00
37648;BME280;23490;53.656;10.076;2023-01-31T03:29:18;99723.66;;;-145.95;100.00
37648;BME280;23490;53.656;10.076;2023-01-31T03:31:49;99789.75;;;-145.95;100.00
37648;BME280;23490;53.656;10.076;2023-01-31T03:34:18;99764.97;;;-145.95;100.00
37648;BME280;23490;53.656;10.076;2023-01-31T03:42:27;99777.38;;;-145.95;100.00
37648;BME280;23490;53.656;10.076;2023-01-31T03:45:05;99773.25;;;-145.95;100.00
37648;BME280;23490;53.656;10.076;2023-01-31T03:47:38;99795.97;;;-145.95;100.00
37648;BME280;23490;53.656;10.076;2023-01-31T03:50:15;99742.25;;;-145.95;100.00
37648;BME280;23490;53.656;10.076;2023-01-31T03:52:50;99758.78;;;-145.95;100.00
37648;BME280;23490;53.656;10.076;2023-01-31T03:55:26;99779.44;;;-145.95;100.00
37648;BME280;23490;53.656;10.076;2023-01-31T03:57:55;99752.59;;;-145.95;100.00
37648;BME280;23490;53.656;10.076;2023-01-31T04:00:23;99736.06;;;-145.95;100.00
37648;BME280;23490;53.656;10.076;2023-01-31T04:03:17;99752.59;;;-145.95;100.00
37648;BME280;23490;53.656;10.076;2023-01-31T04:05:39;99787.69;;;-145.95;100.00
37648;BME280;23490;53.656;10.076;2023-01-31T04:08:05;99777.38;;;-145.95;100.00
37648;BME280;23490;53.656;10.076;2023-01-31T04:10:31;99744.31;;;-145.95;100.00
37648;BME280;23490;53.656;10.076;2023-01-31T04:12:56;99769.13;;;-145.95;100.00
37648;BME280;23490;53.656;10.076;2023-01-31T04:15:22;99771.19;;;-145.95;100.00
37648;BME280;23490;53.656;10.076;2023-01-31T04:17:47;99775.31;;;-145.95;100.00
37648;BME280;23490;53.656;10.076;2023-01-31T04:20:14;99787.69;;;-145.95;100.00
37648;BME280;23490;53.656;10.076;2023-01-31T04:22:39;99760.84;;;-145.95;100.00
37648;BME280;23490;53.656;10.076;2023-01-31T04:25:05;99694.75;;;-145.95;100.00
37648;BME280;23490;53.656;10.076;2023-01-31T04:27:31;99692.69;;;-145.95;100.00
37648;BME280;23490;53.656;10.076;2023-01-31T04:29:57;99750.53;;;-145.95;100.00
37648;BME280;23490;53.656;10.076;2023-01-31T04:32:22;99773.25;;;-145.95;100.00
37648;BME280;23490;53.656;10.076;2023-01-31T04:34:47;99793.91;;;-145.95;100.00
37648;BME280;23490;53.656;10.076;2023-01-31T04:37:13;99754.66;;;-145.95;100.00
37648;BME280;23490;53.656;10.076;2023-01-31T04:39:38;99773.25;;;-145.95;100.00
37648;BME280;23490;53.656;10.076;2023-01-31T04:42:03;99760.84;;;-145.95;100.00
37648;BME280;23490;53.656;10.076;2023-01-31T04:44:29;99769.13;;;-145.95;100.00
37648;BME280;23490;53.656;10.076;2023-01-31T04:46:54;99740.19;;;-145.95;100.00
37648;BME280;23490;53.656;10.076;2023-01-31T04:49:19;99789.75;;;-145.95;100.00
37648;BME280;23490;53.656;10.076;2023-01-31T04:51:45;99750.53;;;-145.95;100.00
37648;BME280;23490;53.656;10.076;2023-01-31T04:54:10;99752.59;;;-145.95;100.00
37648;BME280;23490;53.656;10.076;2023-01-31T04:56:35;99752.59;;;-145.95;100.00
37648;BME280;23490;53.656;10.076;2023-01-31T04:59:01;99731.94;;;-145.95;100.00
37648;BME280;23490;53.656;10.076;2023-01-31T05:01:26;99740.19;;;-145.95;100.00
37648;BME280;23490;53.656;10.076;2023-01-31T05:03:53;99740.19;;;-145.95;100.00
37648;BME280;23490;53.656;10.076;2023-01-31T05:06:18;99798.03;;;-145.95;100.00
37648;BME280;23490;53.656;10.076;2023-01-31T05:08:43;99740.19;;;-145.95;100.00
37648;BME280;23490;53.656;10.076;2023-01-31T05:11:09;99777.38;;;-145.95;100.00
37648;BME280;23490;53.656;10.076;2023-01-31T05:13:34;99727.81;;;-145.95;100.00
37648;BME280;23490;53.656;10.076;2023-01-31T05:16:07;99791.81;;;-145.95;100.00
37648;BME280;23490;53.656;10.076;2023-01-31T05:18:33;99723.66;;;-145.95;100.00
37648;BME280;23490;53.656;10.076;2023-01-31T05:21:03;99760.84;;;-145.95;100.00
37648;BME280;23490;53.656;10.076;2023-01-31T05:23:30;99756.72;;;-145.95;100.00
37648;BME280;23490;53.656;10.076;2023-01-31T05:25:56;99738.13;;;-145.95;100.00
37648;BME280;23490;53.656;10.076;2023-01-31T05:28:22;99744.31;;;-145.95;100.00
37648;BME280;23490;53.656;10.076;2023-01-31T05:30:50;99750.53;;;-145.95;100.00
37648;BME280;23490;53.656;10.076;2023-01-31T05:33:16;99764.97;;;-145.95;100.00
37648;BME280;23490;53.656;10.076;2023-01-31T05:35:42;99748.44;;;-145.95;100.00
37648;BME280;23490;53.656;10.076;2023-01-31T05:38:08;99752.59;;;-145.95;100.00
37648;BME280;23490;53.656;10.076;2023-01-31T05:40:33;99744.31;;;-145.95;100.00
37648;BME280;23490;53.656;10.076;2023-01-31T05:42:59;99748.44;;;-145.95;100.00
37648;BME280;23490;53.656;10.076;2023-01-31T05:45:28;99789.75;;;-145.95;100.00
37648;BME280;23490;53.656;10.076;2023-01-31T05:47:54;99715.41;;;-145.95;100.00
37648;BME280;23490;53.656;10.076;2023-01-31T05:50:20;99734.00;;;-145.95;100.00
37648;BME280;23490;53.656;10.076;2023-01-31T05:52:50;99756.72;;;-145.95;100.00
37648;BME280;23490;53.656;10.076;2023-01-31T05:55:16;99756.72;;;-145.95;100.00
37648;BME280;23490;53.656;10.076;2023-01-31T05:57:41;99723.66;;;-145.95;100.00
37648;BME280;23490;53.656;10.076;2023-01-31T06:00:07;99769.13;;;-145.95;100.00
37648;BME280;23490;53.656;10.076;2023-01-31T06:02:32;99740.19;;;-145.95;100.00
37648;BME280;23490;53.656;10.076;2023-01-31T06:04:58;99773.25;;;-145.95;100.00
37648;BME280;23490;53.656;10.076;2023-01-31T06:07:23;99705.09;;;-145.95;100.00
37648;BME280;23490;53.656;10.076;2023-01-31T06:09:49;99717.47;;;-145.95;100.00
37648;BME280;23490;53.656;10.076;2023-01-31T06:12:14;99707.16;;;-145.95;100.00
37648;BME280;23490;53.656;10.076;2023-01-31T06:14:39;99736.06;;;-145.95;100.00
37648;BME280;23490;53.656;10.076;2023-01-31T06:17:05;99752.59;;;-145.95;100.00
37648;BME280;23490;53.656;10.076;2023-01-31T06:19:30;99734.00;;;-145.95;100.00
37648;BME280;23490;53.656;10.076;2023-01-31T06:21:55;99727.81;;;-145.95;100.00
37648;BME280;23490;53.656;10.076;2023-01-31T06:24:21;99723.66;;;-145.95;100.00
37648;BME280;23490;53.656;10.076;2023-01-31T06:26:46;99764.97;;;-145.95;100.00
37648;BME280;23490;53.656;10.076;2023-01-31T06:29:11;99727.81;;;-145.95;100.00
37648;BME280;23490;53.656;10.076;2023-01-31T06:31:37;99719.53;;;-145.95;100.00
37648;BME280;23490;53.656;10.076;2023-01-31T06:34:02;99736.06;;;-145.95;100.00
37648;BME280;23490;53.656;10.076;2023-01-31T06:36:30;99769.13;;;-145.95;100.00
37648;BME280;23490;53.656;10.076;2023-01-31T06:38:55;99727.81;;;-145.95;100.00
37648;BME280;23490;53.656;10.076;2023-01-31T06:41:21;99754.66;;;-145.95;100.00
37648;BME280;23490;53.656;10.076;2023-01-31T06:43:47;99740.19;;;-145.95;100.00
37648;BME280;23490;53.656;10.076;2023-01-31T06:46:12;99748.44;;;-145.95;100.00
37648;BME280;23490;53.656;10.076;2023-01-31T06:48:37;99734.00;;;-145.95;100.00
37648;BME280;23490;53.656;10.076;2023-01-31T06:51:03;99740.19;;;-145.95;100.00
37648;BME280;23490;53.656;10.076;2023-01-31T06:53:28;99738.13;;;-145.95;100.00
37648;BME280;23490;53.656;10.076;2023-01-31T06:55:54;99736.06;;;-145.95;100.00
37648;BME280;23490;53.656;10.076;2023-01-31T06:58:19;99717.47;;;-145.95;100.00
37648;BME280;23490;53.656;10.076;2023-01-31T07:00:44;99711.28;;;-145.95;100.00
37648;BME280;23490;53.656;10.076;2023-01-31T07:03:10;99711.28;;;-145.95;100.00
37648;BME280;23490;53.656;10.076;2023-01-31T07:05:35;99723.66;;;-145.95;100.00
37648;BME280;23490;53.656;10.076;2023-01-31T07:08:00;99748.44;;;-145.95;100.00
37648;BME280;23490;53.656;10.076;2023-01-31T07:10:26;99707.16;;;-145.95;100.00
37648;BME280;23490;53.656;10.076;2023-01-31T07:12:51;99694.75;;;-145.95;100.00
37648;BME280;23490;53.656;10.076;2023-01-31T07:15:16;99721.59;;;-145.95;100.00
37648;BME280;23490;53.656;10.076;2023-01-31T07:17:42;99698.88;;;-145.95;100.00
37648;BME280;23490;53.656;10.076;2023-01-31T07:20:09;99734.00;;;-145.95;100.00
37648;BME280;23490;53.656;10.076;2023-01-31T07:22:34;99723.66;;;-145.95;100.00
37648;BME280;23490;53.656;10.076;2023-01-31T07:25:00;99744.31;;;-145.95;100.00
37648;BME280;23490;53.656;10.076;2023-01-31T07:27:25;99707.16;;;-145.95;100.00
37648;BME280;23490;53.656;10.076;2023-01-31T07:29:51;99748.44;;;-145.95;100.00
37648;BME280;23490;53.656;10.076;2023-01-31T07:32:16;99715.41;;;-145.95;100.00
37648;BME280;23490;53.656;10.076;2023-01-31T07:34:42;99698.88;;;-145.95;100.00
37648;BME280;23490;53.656;10.076;2023-01-31T07:37:07;99700.94;;;-145.95;100.00
37648;BME280;23490;53.656;10.076;2023-01-31T07:39:33;99736.06;;;-145.95;100.00
37648;BME280;23490;53.656;10.076;2023-01-31T07:41:58;99703.00;;;-145.95;100.00
37648;BME280;23490;53.656;10.076;2023-01-31T07:44:23;99736.06;;;-145.95;100.00
37648;BME280;23490;53.656;10.076;2023-01-31T07:46:49;99736.06;;;-145.95;100.00
37648;BME280;23490;53.656;10.076;2023-01-31T07:49:16;99719.53;;;-145.95;100.00
37648;BME280;23490;53.656;10.076;2023-01-31T07:51:41;99715.41;;;-145.95;100.00
37648;BME280;23490;53.656;10.076;2023-01-31T07:54:09;99694.75;;;-145.95;100.00
37648;BME280;23490;53.656;10.076;2023-01-31T07:56:35;99686.50;;;-145.95;100.00
37648;BME280;23490;53.656;10.076;2023-01-31T07:59:00;99705.09;;;-145.95;100.00
37648;BME280;23490;53.656;10.076;2023-01-31T08:01:26;99707.16;;;-145.95;100.00
37648;BME280;23490;53.656;10.076;2023-01-31T08:04:13;99705.09;;;-145.95;100.00
37648;BME280;23490;53.656;10.076;2023-01-31T08:06:39;99703.00;;;-145.95;100.00
37648;BME280;23490;53.656;10.076;2023-01-31T08:09:05;99692.69;;;-145.95;100.00
37648;BME280;23490;53.656;10.076;2023-01-31T08:11:30;99680.31;;;-145.95;100.00
37648;BME280;23490;53.656;10.076;2023-01-31T08:13:56;99715.41;;;-145.95;100.00
37648;BME280;23490;53.656;10.076;2023-01-31T08:16:21;99684.44;;;-145.95;100.00
37648;BME280;23490;53.656;10.076;2023-01-31T08:18:47;99674.09;;;-145.95;100.00
37648;BME280;23490;53.656;10.076;2023-01-31T08:21:14;99665.84;;;-145.95;100.00
37648;BME280;23490;53.656;10.076;2023-01-31T08:23:39;99628.66;;;-145.95;100.00
37648;BME280;23490;53.656;10.076;2023-01-31T08:26:14;99684.44;;;-145.95;100.00
37648;BME280;23490;53.656;10.076;2023-01-31T08:28:41;99645.19;;;-145.95;100.00
37648;BME280;23490;53.656;10.076;2023-01-31T08:31:12;99703.00;;;-145.95;100.00
37648;BME280;23490;53.656;10.076;2023-01-31T08:33:38;99682.38;;;-145.95;100.00
37648;BME280;23490;53.656;10.076;2023-01-31T08:36:13;99707.16;;;-145.95;100.00
37648;BME280;23490;53.656;10.076;2023-01-31T08:38:40;99634.84;;;-145.95;100.00
37648;BME280;23490;53.656;10.076;2023-01-31T08:41:06;99709.22;;;-145.95;100.00
37648;BME280;23490;53.656;10.076;2023-01-31T08:43:31;99678.22;;;-145.95;100.00
37648;BME280;23490;53.656;10.076;2023-01-31T08:45:57;99684.44;;;-145.95;100.00
37648;BME280;23490;53.656;10.076;2023-01-31T08:48:22;99682.38;;;-145.95;100.00
37648;BME280;23490;53.656;10.076;2023-01-31T08:50:47;99672.03;;;-145.95;100.00
37648;BME280;23490;53.656;10.076;2023-01-31T08:53:13;99707.16;;;-145.95;100.00
37648;BME280;23490;53.656;10.076;2023-01-31T08:55:38;99647.25;;;-145.95;100.00
37648;BME280;23490;53.656;10.076;2023-01-31T08:58:03;99653.44;;;-145.95;100.00
37648;BME280;23490;53.656;10.076;2023-01-31T09:00:30;99698.88;;;-145.95;100.00
37648;BME280;23490;53.656;10.076;2023-01-31T09:02:59;99661.72;;;-145.95;100.00
37648;BME280;23490;53.656;10.076;2023-01-31T09:05:26;99669.97;;;-145.95;100.00
37648;BME280;23490;53.656;10.076;2023-01-31T09:07:51;99628.66;;;-145.95;100.00
37648;BME280;23490;53.656;10.076;2023-01-31T09:10:18;99669.97;;;-145.95;100.00
37648;BME280;23490;53.656;10.076;2023-01-31T09:12:44;99649.31;;;-145.95;100.00
37648;BME280;23490;53.656;10.076;2023-01-31T09:15:10;99645.19;;;-145.95;100.00
37648;BME280;23490;53.656;10.076;2023-01-31T09:17:35;99694.75;;;-145.95;100.00
37648;BME280;23490;53.656;10.076;2023-01-31T09:20:00;99612.16;;;-145.95;100.00
37648;BME280;23490;53.656;10.076;2023-01-31T09:22:33;99653.44;;;-145.95;100.00
37648;BME280;23490;53.656;10.076;2023-01-31T09:24:59;99649.31;;;-145.95;100.00
37648;BME280;23490;53.656;10.076;2023-01-31T09:27:26;99657.56;;;-145.95;100.00
37648;BME280;23490;53.656;10.076;2023-01-31T09:29:51;99651.38;;;-145.95;100.00
37648;BME280;23490;53.656;10.076;2023-01-31T09:32:16;99682.38;;;-145.95;100.00
37648;BME280;23490;53.656;10.076;2023-01-31T09:34:42;99641.06;;;-145.95;100.00
37648;BME280;23490;53.656;10.076;2023-01-31T09:37:07;99643.13;;;-145.95;100.00
37648;BME280;23490;53.656;10.076;2023-01-31T09:39:32;99655.50;;;-145.95;100.00
37648;BME280;23490;53.656;10.076;2023-01-31T09:42:18;99628.66;;;-145.95;100.00
37648;BME280;23490;53.656;10.076;2023-01-31T09:44:55;99661.72;;;-145.95;100.00
37648;BME280;23490;53.656;10.076;2023-01-31T09:47:25;99649.31;;;-145.95;100.00
37648;BME280;23490;53.656;10.076;2023-01-31T09:52:37;99651.38;;;-145.95;100.00
37648;BME280;23490;53.656;10.076;2023-01-31T09:55:03;99645.19;;;-145.95;100.00
37648;BME280;23490;53.656;10.076;2023-01-31T09:57:55;99676.16;;;-145.95;100.00
37648;BME280;23490;53.656;10.076;2023-01-31T10:00:38;99665.84;;;-145.95;100.00
37648;BME280;23490;53.656;10.076;2023-01-31T10:08:39;99690.63;;;-145.95;100.00
37648;BME280;23490;53.656;10.076;2023-01-31T10:11:13;99649.31;;;-145.95;100.00
37648;BME280;23490;53.656;10.076;2023-01-31T10:13:46;99686.50;;;-145.95;100.00
37648;BME280;23490;53.656;10.076;2023-01-31T10:16:57;99657.56;;;-145.95;100.00
37648;BME280;23490;53.656;10.076;2023-01-31T10:19:29;99628.66;;;-145.95;100.00
37648;BME280;23490;53.656;10.076;2023-01-31T10:22:01;99690.63;;;-145.95;100.00
37648;BME280;23490;53.656;10.076;2023-01-31T10:24:39;99653.44;;;-145.95;100.00
37648;BME280;23490;53.656;10.076;2023-01-31T10:27:13;99641.06;;;-145.95;100.00
37648;BME280;23490;53.656;10.076;2023-01-31T10:29:45;99645.19;;;-145.95;100.00
37648;BME280;23490;53.656;10.076;2023-01-31T10:32:22;99624.53;;;-145.95;100.00
37648;BME280;23490;53.656;10.076;2023-01-31T10:35:02;99647.25;;;-145.95;100.00
37648;BME280;23490;53.656;10.076;2023-01-31T10:37:38;99632.78;;;-145.95;100.00
37648;BME280;23490;53.656;10.076;2023-01-31T10:40:16;99636.94;;;-145.95;100.00
37648;BME280;23490;53.656;10.076;2023-01-31T10:42:48;99632.78;;;-145.95;100.00
37648;BME280;23490;53.656;10.076;2023-01-31T10:45:25;99620.41;;;-145.95;100.00
37648;BME280;23490;53.656;10.076;2023-01-31T10:48:13;99661.72;;;-145.95;100.00
37648;BME280;23490;53.656;10.076;2023-01-31T10:51:09;99616.28;;;-145.95;100.00
37648;BME280;23490;53.656;10.076;2023-01-31T10:56:36;99628.66;;;-145.95;100.00
37648;BME280;23490;53.656;10.076;2023-01-31T10:59:11;99616.28;;;-145.95;100.00
37648;BME280;23490;53.656;10.076;2023-01-31T11:01:38;99632.78;;;-145.95;100.00
37648;BME280;23490;53.656;10.076;2023-01-31T11:04:21;99636.94;;;-145.95;100.00
37648;BME280;23490;53.656;10.076;2023-01-31T11:06:47;99624.53;;;-145.95;100.00
37648;BME280;23490;53.656;10.076;2023-01-31T11:09:13;99649.31;;;-145.95;100.00
37648;BME280;23490;53.656;10.076;2023-01-31T11:11:53;99630.72;;;-145.95;100.00
37648;BME280;23490;53.656;10.076;2023-01-31T11:14:19;99620.41;;;-145.95;100.00
37648;BME280;23490;53.656;10.076;2023-01-31T11:16:45;99620.41;;;-145.95;100.00
37648;BME280;23490;53.656;10.076;2023-01-31T11:21:48;99618.34;;;-145.95;100.00
37648;BME280;23490;53.656;10.076;2023-01-31T11:24:26;99636.94;;;-145.95;100.00
37648;BME280;23490;53.656;10.076;2023-01-31T11:26:57;99614.22;;;-145.95;100.00
37648;BME280;23490;53.656;10.076;2023-01-31T11:29:30;99597.69;;;-145.95;100.00
37648;BME280;23490;53.656;10.076;2023-01-31T11:31:57;99622.47;;;-145.95;100.00
37648;BME280;23490;53.656;10.076;2023-01-31T11:34:26;99618.34;;;-145.95;100.00
37648;BME280;23490;53.656;10.076;2023-01-31T11:37:03;99630.72;;;-145.95;100.00
37648;BME280;23490;53.656;10.076;2023-01-31T11:39:34;99612.16;;;-145.95;100.00
37648;BME280;23490;53.656;10.076;2023-01-31T11:42:20;99616.28;;;-145.95;100.00
37648;BME280;23490;53.656;10.076;2023-01-31T11:45:17;99624.53;;;-145.95;100.00
37648;BME280;23490;53.656;10.076;2023-01-31T11:47:46;99593.56;;;-145.95;100.00
37648;BME280;23490;53.656;10.076;2023-01-31T11:50:33;99595.63;;;-145.95;100.00
37648;BME280;23490;53.656;10.076;2023-01-31T11:53:03;99568.78;;;-145.95;100.00
37648;BME280;23490;53.656;10.076;2023-01-31T11:55:36;99608.00;;;-145.95;100.00
37648;BME280;23490;53.656;10.076;2023-01-31T11:58:12;99587.34;;;-145.95;100.00
37648;BME280;23490;53.656;10.076;2023-01-31T12:00:50;99616.28;;;-145.95;100.00
37648;BME280;23490;53.656;10.076;2023-01-31T12:03:17;99595.63;;;-145.95;100.00
37648;BME280;23490;53.656;10.076;2023-01-31T12:05:45;99585.28;;;-145.95;100.00
37648;BME280;23490;53.656;10.076;2023-01-31T12:10:58;99583.22;;;-145.95;100.00
37648;BME280;23490;53.656;10.076;2023-01-31T12:13:24;99620.41;;;-145.95;100.00
37648;BME280;23490;53.656;10.076;2023-01-31T12:15:57;99570.84;;;-145.95;100.00
37648;BME280;23490;53.656;10.076;2023-01-31T12:21:16;99579.09;;;-145.95;100.00
37648;BME280;23490;53.656;10.076;2023-01-31T12:29:44;99591.50;;;-145.95;100.00
37648;BME280;23490;53.656;10.076;2023-01-31T12:37:42;99572.91;;;-145.95;100.00
37648;BME280;23490;53.656;10.076;2023-01-31T12:40:28;99587.34;;;-145.95;100.00
37648;BME280;23490;53.656;10.076;2023-01-31T12:43:01;99541.91;;;-145.95;100.00
37648;BME280;23490;53.656;10.076;2023-01-31T12:45:49;99601.81;;;-145.95;100.00
37648;BME280;23490;53.656;10.076;2023-01-31T12:56:41;99546.06;;;-145.95;100.00
37648;BME280;23490;53.656;10.076;2023-01-31T12:59:38;99599.75;;;-145.95;100.00
37648;BME280;23490;53.656;10.076;2023-01-31T13:04:45;99566.69;;;-145.95;100.00
37648;BME280;23490;53.656;10.076;2023-01-31T13:07:27;99498.56;;;-145.95;100.00
37648;BME280;23490;53.656;10.076;2023-01-31T13:09:56;99564.63;;;-145.95;100.00
37648;BME280;23490;53.656;10.076;2023-01-31T13:12:26;99541.91;;;-145.95;100.00
37648;BME280;23490;53.656;10.076;2023-01-31T13:14:55;99552.25;;;-145.95;100.00
37648;BME280;23490;53.656;10.076;2023-01-31T13:17:25;99513.00;;;-145.95;100.00
37648;BME280;23490;53.656;10.076;2023-01-31T13:19:57;99548.13;;;-145.95;100.00
37648;BME280;23490;53.656;10.076;2023-01-31T13:22:27;99583.22;;;-145.95;100.00
37648;BME280;23490;53.656;10.076;2023-01-31T13:25:22;99492.34;;;-145.95;100.00
37648;BME280;23490;53.656;10.076;2023-01-31T13:27:59;99548.13;;;-145.95;100.00
37648;BME280;23490;53.656;10.076;2023-01-31T13:30:44;99541.91;;;-145.95;100.00
37648;BME280;23490;53.656;10.076;2023-01-31T13:33:22;99556.38;;;-145.95;100.00
37648;BME280;23490;53.656;10.076;2023-01-31T13:36:00;99527.47;;;-145.95;100.00
37648;BME280;23490;53.656;10.076;2023-01-31T13:38:33;99517.13;;;-145.95;100.00